sensor_id;sensor_type;location;lat;lon;timestamp;P1;durP1;ratioP1;P2;durP2;ratioP2
5245;SDS011;54412;51.206;6.888;2023-07-28T00:00:47;1.50;;;1.40;;
5245;SDS011;54412;51.206;6.888;2023-07-28T00:03:13;1.80;;;1.60;;
5245;SDS011;54412;51.206;6.888;2023-07-28T00:05:39;1.70;;;1.37;;
5245;SDS011;54412;51.206;6.888;2023-07-28T00:08:04;2.50;;;1.73;;
5245;SDS011;54412;51.206;6.888;2023-07-28T00:10:30;3.03;;;1.30;;
5245;SDS011;54412;51.206;6.888;2023-07-28T00:12:56;1.43;;;1.40;;
5245;SDS011;54412;51.206;6.888;2023-07-28T00:15:22;2.30;;;1.30;;
5245;SDS011;54412;51.206;6.888;2023-07-28T00:17:48;1.80;;;1.60;;
5245;SDS011;54412;51.206;6.888;2023-07-28T00:20:13;1.67;;;1.57;;
5245;SDS011;54412;51.206;6.888;2023-07-28T00:22:39;1.70;;;1.60;;
5245;SDS011;54412;51.206;6.888;2023-07-28T00:25:05;2.50;;;1.50;;
5245;SDS011;54412;51.206;6.888;2023-07-28T00:27:31;3.13;;;1.60;;
5245;SDS011;54412;51.206;6.888;2023-07-28T00:29:56;2.40;;;2.20;;
5245;SDS011;54412;51.206;6.888;2023-07-28T00:32:22;1.47;;;1.37;;
5245;SDS011;54412;51.206;6.888;2023-07-28T00:34:48;1.77;;;1.67;;
5245;SDS011;54412;51.206;6.888;2023-07-28T00:37:13;1.90;;;1.67;;
5245;SDS011;54412;51.206;6.888;2023-07-28T00:39:39;2.40;;;2.30;;
5245;SDS011;54412;51.206;6.888;2023-07-28T00:42:05;1.60;;;1.50;;
5245;SDS011;54412;51.206;6.888;2023-07-28T00:44:31;1.70;;;1.60;;
5245;SDS011;54412;51.206;6.888;2023-07-28T00:46:56;2.00;;;1.90;;
5245;SDS011;54412;51.206;6.888;2023-07-28T00:49:22;1.80;;;1.70;;
5245;SDS011;54412;51.206;6.888;2023-07-28T00:51:49;2.27;;;2.07;;
5245;SDS011;54412;51.206;6.888;2023-07-28T00:54:16;1.73;;;1.20;;
5245;SDS011;54412;51.206;6.888;2023-07-28T00:56:43;1.83;;;1.73;;
5245;SDS011;54412;51.206;6.888;2023-07-28T00:59:10;3.67;;;1.93;;
5245;SDS011;54412;51.206;6.888;2023-07-28T01:01:36;4.33;;;1.90;;
5245;SDS011;54412;51.206;6.888;2023-07-28T01:04:02;1.97;;;1.60;;
5245;SDS011;54412;51.206;6.888;2023-07-28T01:06:41;1.70;;;1.60;;
5245;SDS011;54412;51.206;6.888;2023-07-28T01:09:23;2.00;;;1.80;;
5245;SDS011;54412;51.206;6.888;2023-07-28T01:11:59;9.20;;;1.70;;
5245;SDS011;54412;51.206;6.888;2023-07-28T01:14:26;2.13;;;1.73;;
5245;SDS011;54412;51.206;6.888;2023-07-28T01:16:51;1.93;;;1.83;;
5245;SDS011;54412;51.206;6.888;2023-07-28T01:19:18;2.30;;;2.20;;
5245;SDS011;54412;51.206;6.888;2023-07-28T01:21:54;3.27;;;1.90;;
5245;SDS011;54412;51.206;6.888;2023-07-28T01:24:42;3.90;;;2.10;;
5245;SDS011;54412;51.206;6.888;2023-07-28T01:27:42;4.27;;;2.00;;
5245;SDS011;54412;51.206;6.888;2023-07-28T01:30:09;4.47;;;2.37;;
5245;SDS011;54412;51.206;6.888;2023-07-28T01:32:36;2.83;;;2.53;;
5245;SDS011;54412;51.206;6.888;2023-07-28T01:35:02;8.63;;;2.70;;
5245;SDS011;54412;51.206;6.888;2023-07-28T01:37:29;2.37;;;2.17;;
5245;SDS011;54412;51.206;6.888;2023-07-28T01:39:55;5.07;;;2.73;;
5245;SDS011;54412;51.206;6.888;2023-07-28T01:42:22;2.37;;;2.20;;
5245;SDS011;54412;51.206;6.888;2023-07-28T01:44:48;6.27;;;2.00;;
5245;SDS011;54412;51.206;6.888;2023-07-28T01:47:15;4.40;;;2.37;;
5245;SDS011;54412;51.206;6.888;2023-07-28T01:49:40;3.83;;;2.20;;
5245;SDS011;54412;51.206;6.888;2023-07-28T01:52:06;8.47;;;2.50;;
5245;SDS011;54412;51.206;6.888;2023-07-28T01:54:32;2.50;;;2.30;;
5245;SDS011;54412;51.206;6.888;2023-07-28T01:56:58;4.63;;;3.00;;
5245;SDS011;54412;51.206;6.888;2023-07-28T01:59:23;4.73;;;2.90;;
5245;SDS011;54412;51.206;6.888;2023-07-28T02:01:49;9.60;;;2.80;;
5245;SDS011;54412;51.206;6.888;2023-07-28T02:04:15;4.60;;;3.20;;
5245;SDS011;54412;51.206;6.888;2023-07-28T02:06:41;9.80;;;3.23;;
5245;SDS011;54412;51.206;6.888;2023-07-28T02:09:07;4.30;;;2.93;;
5245;SDS011;54412;51.206;6.888;2023-07-28T02:11:33;4.90;;;3.07;;
5245;SDS011;54412;51.206;6.888;2023-07-28T02:13:58;3.50;;;3.20;;
5245;SDS011;54412;51.206;6.888;2023-07-28T02:16:24;4.10;;;3.10;;
5245;SDS011;54412;51.206;6.888;2023-07-28T02:18:52;3.27;;;3.00;;
5245;SDS011;54412;51.206;6.888;2023-07-28T02:21:19;5.53;;;3.40;;
5245;SDS011;54412;51.206;6.888;2023-07-28T02:23:44;3.20;;;3.00;;
5245;SDS011;54412;51.206;6.888;2023-07-28T02:26:10;4.50;;;3.60;;
5245;SDS011;54412;51.206;6.888;2023-07-28T02:28:36;3.90;;;3.70;;
5245;SDS011;54412;51.206;6.888;2023-07-28T02:31:02;4.23;;;3.80;;
5245;SDS011;54412;51.206;6.888;2023-07-28T02:33:28;7.40;;;3.80;;
5245;SDS011;54412;51.206;6.888;2023-07-28T02:36:00;4.40;;;3.40;;
5245;SDS011;54412;51.206;6.888;2023-07-28T02:38:26;4.50;;;4.00;;
5245;SDS011;54412;51.206;6.888;2023-07-28T02:40:52;5.70;;;3.53;;
5245;SDS011;54412;51.206;6.888;2023-07-28T02:43:18;4.03;;;3.70;;
5245;SDS011;54412;51.206;6.888;2023-07-28T02:45:43;4.43;;;3.87;;
5245;SDS011;54412;51.206;6.888;2023-07-28T02:48:18;4.50;;;4.10;;
5245;SDS011;54412;51.206;6.888;2023-07-28T02:50:46;3.80;;;3.50;;
5245;SDS011;54412;51.206;6.888;2023-07-28T02:53:12;4.03;;;3.70;;
5245;SDS011;54412;51.206;6.888;2023-07-28T02:55:45;4.20;;;3.30;;
5245;SDS011;54412;51.206;6.888;2023-07-28T02:58:13;4.47;;;3.47;;
5245;SDS011;54412;51.206;6.888;2023-07-28T03:00:39;3.90;;;3.60;;
5245;SDS011;54412;51.206;6.888;2023-07-28T03:03:07;4.80;;;4.50;;
5245;SDS011;54412;51.206;6.888;2023-07-28T03:05:36;4.13;;;3.83;;
5245;SDS011;54412;51.206;6.888;2023-07-28T03:08:03;3.90;;;3.70;;
5245;SDS011;54412;51.206;6.888;2023-07-28T03:10:29;3.70;;;3.50;;
5245;SDS011;54412;51.206;6.888;2023-07-28T03:12:55;6.80;;;4.47;;
5245;SDS011;54412;51.206;6.888;2023-07-28T03:15:21;5.30;;;4.50;;
5245;SDS011;54412;51.206;6.888;2023-07-28T03:17:48;6.47;;;5.03;;
5245;SDS011;54412;51.206;6.888;2023-07-28T03:20:15;4.50;;;4.20;;
5245;SDS011;54412;51.206;6.888;2023-07-28T03:22:41;4.33;;;4.03;;
5245;SDS011;54412;51.206;6.888;2023-07-28T03:25:07;4.97;;;4.57;;
5245;SDS011;54412;51.206;6.888;2023-07-28T03:27:34;4.30;;;3.90;;
5245;SDS011;54412;51.206;6.888;2023-07-28T03:29:59;4.90;;;4.60;;
5245;SDS011;54412;51.206;6.888;2023-07-28T03:32:26;4.97;;;4.57;;
5245;SDS011;54412;51.206;6.888;2023-07-28T03:34:51;4.70;;;4.40;;
5245;SDS011;54412;51.206;6.888;2023-07-28T03:37:17;4.37;;;3.97;;
5245;SDS011;54412;51.206;6.888;2023-07-28T03:39:44;3.70;;;3.50;;
5245;SDS011;54412;51.206;6.888;2023-07-28T03:42:09;3.60;;;3.40;;
5245;SDS011;54412;51.206;6.888;2023-07-28T03:44:35;4.00;;;3.70;;
5245;SDS011;54412;51.206;6.888;2023-07-28T03:47:02;3.83;;;3.53;;
5245;SDS011;54412;51.206;6.888;2023-07-28T03:49:29;4.17;;;3.87;;
5245;SDS011;54412;51.206;6.888;2023-07-28T03:51:55;4.93;;;3.83;;
5245;SDS011;54412;51.206;6.888;2023-07-28T03:54:20;4.80;;;4.40;;
5245;SDS011;54412;51.206;6.888;2023-07-28T03:56:46;4.40;;;4.10;;
5245;SDS011;54412;51.206;6.888;2023-07-28T03:59:12;4.50;;;4.10;;
5245;SDS011;54412;51.206;6.888;2023-07-28T04:01:37;4.00;;;3.70;;
5245;SDS011;54412;51.206;6.888;2023-07-28T04:04:03;4.70;;;4.10;;
5245;SDS011;54412;51.206;6.888;2023-07-28T04:06:48;3.70;;;3.40;;
5245;SDS011;54412;51.206;6.888;2023-07-28T04:09:20;4.07;;;3.77;;
5245;SDS011;54412;51.206;6.888;2023-07-28T04:11:46;6.57;;;5.23;;
5245;SDS011;54412;51.206;6.888;2023-07-28T04:14:12;3.87;;;3.47;;
5245;SDS011;54412;51.206;6.888;2023-07-28T04:16:39;4.60;;;3.30;;
5245;SDS011;54412;51.206;6.888;2023-07-28T04:19:05;3.13;;;2.93;;
5245;SDS011;54412;51.206;6.888;2023-07-28T04:21:31;3.00;;;2.90;;
5245;SDS011;54412;51.206;6.888;2023-07-28T04:23:57;4.70;;;3.37;;
5245;SDS011;54412;51.206;6.888;2023-07-28T04:26:25;9.03;;;2.10;;
5245;SDS011;54412;51.206;6.888;2023-07-28T04:28:51;2.83;;;2.00;;
5245;SDS011;54412;51.206;6.888;2023-07-28T04:31:17;2.13;;;2.00;;
5245;SDS011;54412;51.206;6.888;2023-07-28T04:33:43;7.33;;;2.03;;
5245;SDS011;54412;51.206;6.888;2023-07-28T04:36:09;3.70;;;2.43;;
5245;SDS011;54412;51.206;6.888;2023-07-28T04:38:34;3.37;;;2.10;;
5245;SDS011;54412;51.206;6.888;2023-07-28T04:41:00;2.30;;;2.07;;
5245;SDS011;54412;51.206;6.888;2023-07-28T04:43:26;1.87;;;1.73;;
5245;SDS011;54412;51.206;6.888;2023-07-28T04:45:52;2.70;;;2.03;;
5245;SDS011;54412;51.206;6.888;2023-07-28T04:48:18;2.00;;;1.53;;
5245;SDS011;54412;51.206;6.888;2023-07-28T04:50:44;1.57;;;1.47;;
5245;SDS011;54412;51.206;6.888;2023-07-28T04:53:10;1.53;;;1.43;;
5245;SDS011;54412;51.206;6.888;2023-07-28T04:55:36;1.47;;;1.47;;
5245;SDS011;54412;51.206;6.888;2023-07-28T04:58:01;6.87;;;1.63;;
5245;SDS011;54412;51.206;6.888;2023-07-28T05:00:27;2.00;;;1.90;;
5245;SDS011;54412;51.206;6.888;2023-07-28T05:02:53;1.63;;;1.53;;
5245;SDS011;54412;51.206;6.888;2023-07-28T05:05:19;2.87;;;1.43;;
5245;SDS011;54412;51.206;6.888;2023-07-28T05:07:45;3.90;;;1.53;;
5245;SDS011;54412;51.206;6.888;2023-07-28T05:10:10;2.30;;;2.03;;
5245;SDS011;54412;51.206;6.888;2023-07-28T05:12:36;2.17;;;2.07;;
5245;SDS011;54412;51.206;6.888;2023-07-28T05:15:02;2.00;;;1.90;;
5245;SDS011;54412;51.206;6.888;2023-07-28T05:17:29;1.90;;;1.53;;
5245;SDS011;54412;51.206;6.888;2023-07-28T05:19:55;4.53;;;2.07;;
5245;SDS011;54412;51.206;6.888;2023-07-28T05:22:20;6.77;;;1.80;;
5245;SDS011;54412;51.206;6.888;2023-07-28T05:24:46;2.50;;;2.30;;
5245;SDS011;54412;51.206;6.888;2023-07-28T05:27:12;4.43;;;1.73;;
5245;SDS011;54412;51.206;6.888;2023-07-28T05:29:38;1.77;;;1.47;;
5245;SDS011;54412;51.206;6.888;2023-07-28T05:32:03;2.03;;;1.90;;
5245;SDS011;54412;51.206;6.888;2023-07-28T05:34:30;1.93;;;1.50;;
5245;SDS011;54412;51.206;6.888;2023-07-28T05:36:56;2.00;;;1.90;;
5245;SDS011;54412;51.206;6.888;2023-07-28T05:39:22;2.03;;;1.83;;
5245;SDS011;54412;51.206;6.888;2023-07-28T05:41:47;2.13;;;2.03;;
5245;SDS011;54412;51.206;6.888;2023-07-28T05:44:13;3.93;;;2.33;;
5245;SDS011;54412;51.206;6.888;2023-07-28T05:46:39;2.20;;;1.70;;
5245;SDS011;54412;51.206;6.888;2023-07-28T05:49:05;3.00;;;2.40;;
5245;SDS011;54412;51.206;6.888;2023-07-28T05:51:31;2.40;;;2.20;;
5245;SDS011;54412;51.206;6.888;2023-07-28T05:53:56;4.17;;;1.90;;
5245;SDS011;54412;51.206;6.888;2023-07-28T05:56:22;2.03;;;1.83;;
5245;SDS011;54412;51.206;6.888;2023-07-28T05:58:48;2.27;;;2.10;;
5245;SDS011;54412;51.206;6.888;2023-07-28T06:01:15;3.27;;;2.97;;
5245;SDS011;54412;51.206;6.888;2023-07-28T06:03:41;1.97;;;1.87;;
5245;SDS011;54412;51.206;6.888;2023-07-28T06:06:07;5.10;;;2.53;;
5245;SDS011;54412;51.206;6.888;2023-07-28T06:08:32;3.13;;;2.40;;
5245;SDS011;54412;51.206;6.888;2023-07-28T06:10:59;4.00;;;2.87;;
5245;SDS011;54412;51.206;6.888;2023-07-28T06:13:25;8.03;;;1.87;;
5245;SDS011;54412;51.206;6.888;2023-07-28T06:15:52;3.37;;;3.07;;
5245;SDS011;54412;51.206;6.888;2023-07-28T06:18:19;2.20;;;2.10;;
5245;SDS011;54412;51.206;6.888;2023-07-28T06:20:47;3.77;;;2.17;;
5245;SDS011;54412;51.206;6.888;2023-07-28T06:23:13;2.73;;;2.47;;
5245;SDS011;54412;51.206;6.888;2023-07-28T06:25:38;2.40;;;2.30;;
5245;SDS011;54412;51.206;6.888;2023-07-28T06:28:10;2.37;;;2.17;;
5245;SDS011;54412;51.206;6.888;2023-07-28T06:30:37;2.47;;;2.30;;
5245;SDS011;54412;51.206;6.888;2023-07-28T06:33:05;2.40;;;2.23;;
5245;SDS011;54412;51.206;6.888;2023-07-28T06:35:31;5.30;;;3.97;;
5245;SDS011;54412;51.206;6.888;2023-07-28T06:37:59;4.43;;;2.63;;
5245;SDS011;54412;51.206;6.888;2023-07-28T06:40:26;3.83;;;3.00;;
5245;SDS011;54412;51.206;6.888;2023-07-28T06:42:51;5.10;;;4.03;;
5245;SDS011;54412;51.206;6.888;2023-07-28T06:45:17;7.73;;;4.27;;
5245;SDS011;54412;51.206;6.888;2023-07-28T06:47:43;4.33;;;3.77;;
5245;SDS011;54412;51.206;6.888;2023-07-28T06:50:09;10.30;;;3.73;;
5245;SDS011;54412;51.206;6.888;2023-07-28T06:52:36;4.97;;;4.27;;
5245;SDS011;54412;51.206;6.888;2023-07-28T06:55:03;2.87;;;2.63;;
5245;SDS011;54412;51.206;6.888;2023-07-28T06:57:29;9.10;;;3.00;;
5245;SDS011;54412;51.206;6.888;2023-07-28T06:59:55;9.20;;;6.07;;
5245;SDS011;54412;51.206;6.888;2023-07-28T07:02:22;9.03;;;5.00;;
5245;SDS011;54412;51.206;6.888;2023-07-28T07:04:48;5.60;;;2.90;;
5245;SDS011;54412;51.206;6.888;2023-07-28T07:07:14;4.77;;;3.37;;
5245;SDS011;54412;51.206;6.888;2023-07-28T07:09:39;9.73;;;6.03;;
5245;SDS011;54412;51.206;6.888;2023-07-28T07:12:07;3.87;;;2.90;;
5245;SDS011;54412;51.206;6.888;2023-07-28T07:14:34;9.57;;;7.40;;
5245;SDS011;54412;51.206;6.888;2023-07-28T07:17:00;4.20;;;3.90;;
5245;SDS011;54412;51.206;6.888;2023-07-28T07:19:27;6.03;;;2.70;;
5245;SDS011;54412;51.206;6.888;2023-07-28T07:21:54;4.20;;;3.60;;
5245;SDS011;54412;51.206;6.888;2023-07-28T07:24:20;6.80;;;6.10;;
5245;SDS011;54412;51.206;6.888;2023-07-28T07:26:46;4.30;;;3.80;;
5245;SDS011;54412;51.206;6.888;2023-07-28T07:29:11;6.47;;;5.83;;
5245;SDS011;54412;51.206;6.888;2023-07-28T07:31:37;2.77;;;2.53;;
5245;SDS011;54412;51.206;6.888;2023-07-28T07:34:03;4.10;;;2.80;;
5245;SDS011;54412;51.206;6.888;2023-07-28T07:36:29;6.20;;;4.40;;
5245;SDS011;54412;51.206;6.888;2023-07-28T07:38:56;3.90;;;3.47;;
5245;SDS011;54412;51.206;6.888;2023-07-28T07:41:22;2.63;;;2.53;;
5245;SDS011;54412;51.206;6.888;2023-07-28T07:43:49;5.30;;;3.60;;
5245;SDS011;54412;51.206;6.888;2023-07-28T07:46:18;2.97;;;2.87;;
5245;SDS011;54412;51.206;6.888;2023-07-28T07:48:44;2.40;;;2.17;;
5245;SDS011;54412;51.206;6.888;2023-07-28T07:51:10;4.83;;;3.23;;
5245;SDS011;54412;51.206;6.888;2023-07-28T07:53:36;3.53;;;2.60;;
5245;SDS011;54412;51.206;6.888;2023-07-28T07:56:03;3.27;;;2.97;;
5245;SDS011;54412;51.206;6.888;2023-07-28T07:58:29;3.80;;;2.90;;
5245;SDS011;54412;51.206;6.888;2023-07-28T08:00:55;6.27;;;3.30;;
5245;SDS011;54412;51.206;6.888;2023-07-28T08:03:21;3.93;;;3.63;;
5245;SDS011;54412;51.206;6.888;2023-07-28T08:05:47;6.23;;;3.80;;
5245;SDS011;54412;51.206;6.888;2023-07-28T08:08:13;7.30;;;3.80;;
5245;SDS011;54412;51.206;6.888;2023-07-28T08:10:42;5.63;;;4.23;;
5245;SDS011;54412;51.206;6.888;2023-07-28T08:13:09;7.07;;;3.63;;
5245;SDS011;54412;51.206;6.888;2023-07-28T08:15:34;4.23;;;3.80;;
5245;SDS011;54412;51.206;6.888;2023-07-28T08:18:00;6.50;;;3.97;;
5245;SDS011;54412;51.206;6.888;2023-07-28T08:20:26;4.70;;;4.07;;
5245;SDS011;54412;51.206;6.888;2023-07-28T08:22:52;9.23;;;4.87;;
5245;SDS011;54412;51.206;6.888;2023-07-28T08:25:17;5.30;;;4.03;;
5245;SDS011;54412;51.206;6.888;2023-07-28T08:27:43;4.97;;;4.47;;
5245;SDS011;54412;51.206;6.888;2023-07-28T08:30:09;5.03;;;4.63;;
5245;SDS011;54412;51.206;6.888;2023-07-28T08:32:36;6.93;;;4.90;;
5245;SDS011;54412;51.206;6.888;2023-07-28T08:35:02;7.33;;;4.57;;
5245;SDS011;54412;51.206;6.888;2023-07-28T08:37:28;5.43;;;4.93;;
5245;SDS011;54412;51.206;6.888;2023-07-28T08:39:54;9.13;;;4.13;;
5245;SDS011;54412;51.206;6.888;2023-07-28T08:42:20;4.87;;;4.13;;
5245;SDS011;54412;51.206;6.888;2023-07-28T08:44:49;8.23;;;4.50;;
5245;SDS011;54412;51.206;6.888;2023-07-28T08:47:17;5.47;;;4.33;;
5245;SDS011;54412;51.206;6.888;2023-07-28T08:49:44;6.10;;;5.50;;
5245;SDS011;54412;51.206;6.888;2023-07-28T08:52:10;8.77;;;4.73;;
5245;SDS011;54412;51.206;6.888;2023-07-28T08:54:35;7.50;;;4.70;;
5245;SDS011;54412;51.206;6.888;2023-07-28T08:57:01;4.37;;;3.83;;
5245;SDS011;54412;51.206;6.888;2023-07-28T08:59:28;5.73;;;4.47;;
5245;SDS011;54412;51.206;6.888;2023-07-28T09:01:55;4.67;;;4.27;;
5245;SDS011;54412;51.206;6.888;2023-07-28T09:04:26;4.53;;;4.20;;
5245;SDS011;54412;51.206;6.888;2023-07-28T09:06:52;4.73;;;4.33;;
5245;SDS011;54412;51.206;6.888;2023-07-28T09:09:21;4.40;;;4.00;;
5245;SDS011;54412;51.206;6.888;2023-07-28T09:11:49;10.20;;;4.00;;
5245;SDS011;54412;51.206;6.888;2023-07-28T09:14:18;5.30;;;4.10;;
5245;SDS011;54412;51.206;6.888;2023-07-28T09:16:46;5.60;;;3.90;;
5245;SDS011;54412;51.206;6.888;2023-07-28T09:19:12;5.73;;;3.37;;
5245;SDS011;54412;51.206;6.888;2023-07-28T09:21:39;4.90;;;4.50;;
5245;SDS011;54412;51.206;6.888;2023-07-28T09:24:12;5.20;;;3.90;;
5245;SDS011;54412;51.206;6.888;2023-07-28T09:31:46;4.90;;;3.87;;
5245;SDS011;54412;51.206;6.888;2023-07-28T09:34:24;4.47;;;3.77;;
5245;SDS011;54412;51.206;6.888;2023-07-28T09:36:53;3.27;;;3.17;;
5245;SDS011;54412;51.206;6.888;2023-07-28T09:39:20;4.20;;;2.90;;
5245;SDS011;54412;51.206;6.888;2023-07-28T09:41:46;6.70;;;3.70;;
5245;SDS011;54412;51.206;6.888;2023-07-28T09:44:12;6.53;;;3.50;;
5245;SDS011;54412;51.206;6.888;2023-07-28T09:46:48;4.07;;;3.67;;
5245;SDS011;54412;51.206;6.888;2023-07-28T09:49:36;2.70;;;2.50;;
5245;SDS011;54412;51.206;6.888;2023-07-28T09:52:10;3.27;;;3.03;;
5245;SDS011;54412;51.206;6.888;2023-07-28T09:54:39;2.70;;;2.60;;
5245;SDS011;54412;51.206;6.888;2023-07-28T09:57:08;4.73;;;3.50;;
5245;SDS011;54412;51.206;6.888;2023-07-28T09:59:39;3.23;;;2.47;;
5245;SDS011;54412;51.206;6.888;2023-07-28T10:02:07;3.27;;;3.07;;
5245;SDS011;54412;51.206;6.888;2023-07-28T10:04:34;3.20;;;3.00;;
5245;SDS011;54412;51.206;6.888;2023-07-28T10:07:01;3.80;;;2.33;;
5245;SDS011;54412;51.206;6.888;2023-07-28T10:09:30;3.40;;;3.03;;
5245;SDS011;54412;51.206;6.888;2023-07-28T10:11:58;2.97;;;2.77;;
5245;SDS011;54412;51.206;6.888;2023-07-28T10:14:29;6.57;;;2.77;;
5245;SDS011;54412;51.206;6.888;2023-07-28T10:17:00;3.93;;;2.40;;
5245;SDS011;54412;51.206;6.888;2023-07-28T10:19:29;1.97;;;1.87;;
5245;SDS011;54412;51.206;6.888;2023-07-28T10:22:08;2.27;;;2.17;;
5245;SDS011;54412;51.206;6.888;2023-07-28T10:27:28;1.83;;;1.83;;
5245;SDS011;54412;51.206;6.888;2023-07-28T10:30:03;3.07;;;1.77;;
5245;SDS011;54412;51.206;6.888;2023-07-28T10:32:40;2.03;;;1.93;;
5245;SDS011;54412;51.206;6.888;2023-07-28T10:37:43;1.97;;;1.97;;
5245;SDS011;54412;51.206;6.888;2023-07-28T10:40:23;5.20;;;2.07;;
5245;SDS011;54412;51.206;6.888;2023-07-28T10:43:04;2.13;;;2.03;;
5245;SDS011;54412;51.206;6.888;2023-07-28T10:45:30;2.07;;;1.90;;
5245;SDS011;54412;51.206;6.888;2023-07-28T10:47:58;2.63;;;2.43;;
5245;SDS011;54412;51.206;6.888;2023-07-28T10:50:28;2.23;;;2.13;;
5245;SDS011;54412;51.206;6.888;2023-07-28T10:52:55;3.43;;;2.37;;
5245;SDS011;54412;51.206;6.888;2023-07-28T10:55:23;3.23;;;2.73;;
5245;SDS011;54412;51.206;6.888;2023-07-28T10:57:51;3.03;;;2.40;;
5245;SDS011;54412;51.206;6.888;2023-07-28T11:00:19;3.00;;;2.80;;
5245;SDS011;54412;51.206;6.888;2023-07-28T11:02:48;2.43;;;2.33;;
5245;SDS011;54412;51.206;6.888;2023-07-28T11:05:25;2.10;;;2.00;;
5245;SDS011;54412;51.206;6.888;2023-07-28T11:07:55;2.70;;;1.40;;
5245;SDS011;54412;51.206;6.888;2023-07-28T11:10:23;1.30;;;1.30;;
5245;SDS011;54412;51.206;6.888;2023-07-28T11:12:51;2.07;;;1.70;;
5245;SDS011;54412;51.206;6.888;2023-07-28T11:15:18;2.90;;;1.77;;
5245;SDS011;54412;51.206;6.888;2023-07-28T11:17:45;2.20;;;1.80;;
5245;SDS011;54412;51.206;6.888;2023-07-28T11:20:19;1.30;;;1.30;;
5245;SDS011;54412;51.206;6.888;2023-07-28T11:22:55;2.73;;;1.67;;
5245;SDS011;54412;51.206;6.888;2023-07-28T11:25:29;1.30;;;1.30;;
5245;SDS011;54412;51.206;6.888;2023-07-28T11:27:57;5.23;;;1.83;;
5245;SDS011;54412;51.206;6.888;2023-07-28T11:30:25;1.17;;;1.17;;
5245;SDS011;54412;51.206;6.888;2023-07-28T11:32:53;2.00;;;1.83;;
5245;SDS011;54412;51.206;6.888;2023-07-28T11:35:20;1.47;;;1.40;;
5245;SDS011;54412;51.206;6.888;2023-07-28T11:37:48;1.87;;;1.77;;
5245;SDS011;54412;51.206;6.888;2023-07-28T11:40:18;1.47;;;1.37;;
5245;SDS011;54412;51.206;6.888;2023-07-28T11:42:47;2.03;;;1.60;;
5245;SDS011;54412;51.206;6.888;2023-07-28T11:45:19;1.90;;;1.43;;
5245;SDS011;54412;51.206;6.888;2023-07-28T11:47:51;1.63;;;1.30;;
5245;SDS011;54412;51.206;6.888;2023-07-28T11:50:25;1.00;;;1.00;;
5245;SDS011;54412;51.206;6.888;2023-07-28T11:52:54;1.10;;;1.10;;
5245;SDS011;54412;51.206;6.888;2023-07-28T11:55:22;1.00;;;0.97;;
5245;SDS011;54412;51.206;6.888;2023-07-28T11:57:49;0.87;;;0.87;;
5245;SDS011;54412;51.206;6.888;2023-07-28T12:00:18;1.10;;;1.03;;
5245;SDS011;54412;51.206;6.888;2023-07-28T12:03:00;1.17;;;1.17;;
5245;SDS011;54412;51.206;6.888;2023-07-28T12:06:03;1.70;;;1.60;;
5245;SDS011;54412;51.206;6.888;2023-07-28T12:08:34;1.53;;;1.43;;
5245;SDS011;54412;51.206;6.888;2023-07-28T12:11:04;2.40;;;1.13;;
5245;SDS011;54412;51.206;6.888;2023-07-28T12:13:31;1.50;;;1.20;;
5245;SDS011;54412;51.206;6.888;2023-07-28T12:15:57;1.43;;;1.37;;
5245;SDS011;54412;51.206;6.888;2023-07-28T12:18:23;1.37;;;1.10;;
5245;SDS011;54412;51.206;6.888;2023-07-28T12:20:56;1.50;;;1.40;;
5245;SDS011;54412;51.206;6.888;2023-07-28T12:23:22;1.53;;;1.43;;
5245;SDS011;54412;51.206;6.888;2023-07-28T12:25:48;1.20;;;1.20;;
5245;SDS011;54412;51.206;6.888;2023-07-28T12:28:15;1.10;;;1.10;;
5245;SDS011;54412;51.206;6.888;2023-07-28T12:30:41;1.37;;;1.03;;
5245;SDS011;54412;51.206;6.888;2023-07-28T12:33:08;1.50;;;1.40;;
5245;SDS011;54412;51.206;6.888;2023-07-28T12:35:34;1.60;;;1.33;;
5245;SDS011;54412;51.206;6.888;2023-07-28T12:38:01;1.17;;;1.17;;
5245;SDS011;54412;51.206;6.888;2023-07-28T12:40:31;1.90;;;1.10;;
5245;SDS011;54412;51.206;6.888;2023-07-28T12:43:00;1.40;;;1.30;;
5245;SDS011;54412;51.206;6.888;2023-07-28T12:45:27;3.00;;;1.10;;
5245;SDS011;54412;51.206;6.888;2023-07-28T12:47:54;1.77;;;1.13;;
5245;SDS011;54412;51.206;6.888;2023-07-28T12:50:21;1.00;;;0.83;;
5245;SDS011;54412;51.206;6.888;2023-07-28T12:52:48;1.03;;;1.03;;
5245;SDS011;54412;51.206;6.888;2023-07-28T12:55:14;2.33;;;1.17;;
5245;SDS011;54412;51.206;6.888;2023-07-28T12:57:42;0.83;;;0.73;;
5245;SDS011;54412;51.206;6.888;2023-07-28T13:00:09;3.47;;;0.73;;
5245;SDS011;54412;51.206;6.888;2023-07-28T13:02:39;1.20;;;1.10;;
5245;SDS011;54412;51.206;6.888;2023-07-28T13:05:06;0.90;;;0.90;;
5245;SDS011;54412;51.206;6.888;2023-07-28T13:07:35;0.90;;;0.90;;
5245;SDS011;54412;51.206;6.888;2023-07-28T13:10:02;0.67;;;0.67;;
5245;SDS011;54412;51.206;6.888;2023-07-28T13:12:29;1.30;;;0.90;;
5245;SDS011;54412;51.206;6.888;2023-07-28T13:14:55;0.80;;;0.80;;
5245;SDS011;54412;51.206;6.888;2023-07-28T13:17:20;1.23;;;1.13;;
5245;SDS011;54412;51.206;6.888;2023-07-28T13:19:46;1.17;;;0.97;;
5245;SDS011;54412;51.206;6.888;2023-07-28T13:22:12;0.90;;;0.90;;
5245;SDS011;54412;51.206;6.888;2023-07-28T13:24:38;2.03;;;1.47;;
5245;SDS011;54412;51.206;6.888;2023-07-28T13:27:04;0.87;;;0.87;;
5245;SDS011;54412;51.206;6.888;2023-07-28T13:29:30;2.00;;;1.37;;
5245;SDS011;54412;51.206;6.888;2023-07-28T13:31:59;1.10;;;1.10;;
5245;SDS011;54412;51.206;6.888;2023-07-28T13:34:26;1.97;;;0.70;;
5245;SDS011;54412;51.206;6.888;2023-07-28T13:36:53;0.77;;;0.77;;
5245;SDS011;54412;51.206;6.888;2023-07-28T13:39:20;1.73;;;0.70;;
5245;SDS011;54412;51.206;6.888;2023-07-28T13:41:47;0.83;;;0.70;;
5245;SDS011;54412;51.206;6.888;2023-07-28T13:44:13;1.00;;;1.00;;
5245;SDS011;54412;51.206;6.888;2023-07-28T13:46:38;0.70;;;0.70;;
5245;SDS011;54412;51.206;6.888;2023-07-28T13:49:04;2.50;;;0.73;;
5245;SDS011;54412;51.206;6.888;2023-07-28T13:51:30;0.90;;;0.90;;
5245;SDS011;54412;51.206;6.888;2023-07-28T13:53:56;1.23;;;0.90;;
5245;SDS011;54412;51.206;6.888;2023-07-28T13:56:21;0.67;;;0.67;;
5245;SDS011;54412;51.206;6.888;2023-07-28T13:58:47;0.90;;;0.90;;
5245;SDS011;54412;51.206;6.888;2023-07-28T14:01:13;0.80;;;0.80;;
5245;SDS011;54412;51.206;6.888;2023-07-28T14:03:38;0.80;;;0.73;;
5245;SDS011;54412;51.206;6.888;2023-07-28T14:06:04;0.90;;;0.90;;
5245;SDS011;54412;51.206;6.888;2023-07-28T14:08:30;1.33;;;0.70;;
5245;SDS011;54412;51.206;6.888;2023-07-28T14:10:56;1.00;;;1.00;;
5245;SDS011;54412;51.206;6.888;2023-07-28T14:13:21;1.00;;;0.97;;
5245;SDS011;54412;51.206;6.888;2023-07-28T14:15:48;1.80;;;0.93;;
5245;SDS011;54412;51.206;6.888;2023-07-28T14:18:15;1.23;;;1.10;;
5245;SDS011;54412;51.206;6.888;2023-07-28T14:20:40;2.37;;;1.30;;
5245;SDS011;54412;51.206;6.888;2023-07-28T14:25:53;1.23;;;1.23;;
5245;SDS011;54412;51.206;6.888;2023-07-28T14:28:19;1.57;;;1.50;;
5245;SDS011;54412;51.206;6.888;2023-07-28T14:30:46;1.20;;;1.10;;
5245;SDS011;54412;51.206;6.888;2023-07-28T14:33:13;2.13;;;1.10;;
5245;SDS011;54412;51.206;6.888;2023-07-28T14:35:41;1.23;;;1.23;;
5245;SDS011;54412;51.206;6.888;2023-07-28T14:38:12;1.50;;;1.40;;
5245;SDS011;54412;51.206;6.888;2023-07-28T14:40:38;2.30;;;1.33;;
5245;SDS011;54412;51.206;6.888;2023-07-28T14:43:05;1.80;;;1.70;;
5245;SDS011;54412;51.206;6.888;2023-07-28T14:45:33;3.77;;;1.90;;
5245;SDS011;54412;51.206;6.888;2023-07-28T14:47:59;1.67;;;1.57;;
5245;SDS011;54412;51.206;6.888;2023-07-28T14:50:28;1.40;;;1.30;;
5245;SDS011;54412;51.206;6.888;2023-07-28T14:52:57;1.47;;;1.40;;
5245;SDS011;54412;51.206;6.888;2023-07-28T14:55:24;1.37;;;0.90;;
5245;SDS011;54412;51.206;6.888;2023-07-28T14:57:51;1.10;;;1.10;;
5245;SDS011;54412;51.206;6.888;2023-07-28T15:00:17;1.00;;;1.00;;
5245;SDS011;54412;51.206;6.888;2023-07-28T15:02:43;2.00;;;1.43;;
5245;SDS011;54412;51.206;6.888;2023-07-28T15:05:09;1.23;;;1.20;;
5245;SDS011;54412;51.206;6.888;2023-07-28T15:07:34;1.63;;;1.50;;
5245;SDS011;54412;51.206;6.888;2023-07-28T15:10:02;2.27;;;1.63;;
5245;SDS011;54412;51.206;6.888;2023-07-28T15:12:29;1.53;;;1.40;;
5245;SDS011;54412;51.206;6.888;2023-07-28T15:14:56;1.20;;;1.20;;